Time;durP1;ratioP1;P1;durP2;ratioP2;P2;SDS_P1;SDS_P2;PMS_P1;PMS_P2;Temp;Humidity;BMP_temperature;BMP_pressure;BME280_temperature;BME280_humidity;BME280_pressure;Samples;Min_cycle;Max_cycle;Signal;HPM_P1;HPM_P2
2019/04/16 20:55:41;;;;;;;6.750001;6.05;;;;;;;11.96;51.10449;95384.41;;;;
2019/04/16 20:56:42;;;;;;;6.750001;6.05;;;;;;;11.96;51.10449;95384.41;;;;
2019/04/16 20:57:43;;;;;;;6.750001;6.05;;;;;;;11.96;51.10449;95384.41;;;;
2019/04/16 20:58:44;;;;;;;7.9;6.1;;;;;;;11.83;51.28418;95381.87;;;;
2019/04/16 20:59:45;;;;;;;7.9;6.1;;;;;;;11.83;51.28418;95381.87;;;;
2019/04/16 21:00:48;;;;;;;7.15;6.100001;;;;;;;11.71;51.57227;95383.78;;;;
2019/04/16 21:01:49;;;;;;;7.15;6.100001;;;;;;;11.71;51.57227;95383.78;;;;
2019/04/16 21:02:50;;;;;;;7.15;6.100001;;;;;;;11.71;51.57227;95383.78;;;;
2019/04/16 21:03:57;;;;;;;7.15;6.100001;;;;;;;11.71;51.57227;95383.78;;;;
2019/04/16 21:04:58;;;;;;;7.15;6.100001;;;;;;;11.71;51.57227;95383.78;;;;
2019/04/16 21:05:59;;;;;;;7.15;6.100001;;;;;;;11.71;51.57227;95383.78;;;;
2019/04/16 21:07:00;;;;;;;7.15;6.100001;;;;;;;11.71;51.57227;95383.78;;;;
2019/04/16 21:08:01;;;;;;;7.15;6.100001;;;;;;;11.71;51.57227;95383.78;;;;
2019/04/16 21:09:03;;;;;;;7.15;6.100001;;;;;;;11.71;51.57227;95383.78;;;;
2019/04/16 21:10:05;;;;;;;7.15;6.100001;;;;;;;11.71;51.57227;95383.78;;;;
2019/04/16 21:11:06;;;;;;;7.15;6.100001;;;;;;;11.71;51.57227;95383.78;;;;
2019/04/16 21:12:07;;;;;;;7.15;6.100001;;;;;;;11.71;51.57227;95383.78;;;;
2019/04/16 21:13:08;;;;;;;7.15;6.100001;;;;;;;11.71;51.57227;95383.78;;;;
2019/04/16 21:14:09;;;;;;;7.549999;5.799999;;;;;;;10.74;51.79199;95388.78;;;;
2019/04/16 21:15:11;;;;;;;7.549999;5.799999;;;;;;;10.74;51.79199;95388.78;;;;
2019/04/16 21:16:12;;;;;;;7.549999;5.799999;;;;;;;10.74;51.79199;95388.78;;;;
2019/04/16 21:17:13;;;;;;;7.2;5.9;;;;;;;10.67;52.41895;95392;;;;
2019/04/16 21:18:14;;;;;;;7.2;5.9;;;;;;;10.67;52.41895;95392;;;;
2019/04/16 21:19:15;;;;;;;8.299999;5.849999;;;;;;;10.61;53.06836;95389.42;;;;
2019/04/16 21:20:16;;;;;;;8.299999;5.849999;;;;;;;10.61;53.06836;95389.42;;;;
2019/04/16 21:21:17;;;;;;;8.299999;5.849999;;;;;;;10.61;53.06836;95389.42;;;;
2019/04/16 21:22:18;;;;;;;6.7;5.799999;;;;;;;10.53;53.41504;95389.23;;;;
2019/04/16 21:23:19;;;;;;;6.7;5.799999;;;;;;;10.53;53.41504;95389.23;;;;
2019/04/16 21:24:20;;;;;;;7.100001;5.849999;;;;;;;10.44;53.8125;95385.64;;;;
2019/04/16 21:25:21;;;;;;;7.100001;5.849999;;;;;;;10.44;53.8125;95385.64;;;;
2019/04/16 21:26:23;;;;;;;7.100001;5.849999;;;;;;;10.44;53.8125;95385.64;;;;
2019/04/16 21:27:24;;;;;;;7.100001;5.849999;;;;;;;10.44;53.8125;95385.64;;;;
2019/04/16 21:28:30;;;;;;;7.100001;5.849999;;;;;;;10.44;53.8125;95385.64;;;;
2019/04/16 21:29:34;;;;;;;7.100001;5.849999;;;;;;;10.44;53.8125;95385.64;;;;
2019/04/16 21:30:35;;;;;;;7.100001;5.849999;;;;;;;10.44;53.8125;95385.64;;;;
2019/04/16 21:31:39;;;;;;;7.100001;5.849999;;;;;;;10.44;53.8125;95385.64;;;;
2019/04/16 21:35:56;;;;;;;7.5;5.799999;;;;;;;9.77;52.7959;95378.31;;;;
2019/04/16 21:42:05;;;;;;;6.850001;5.55;;;;;;;9.68;54.98633;95378.33;;;;
2019/04/16 21:43:06;;;;;;;7.300001;5.9;;;;;;;9.66;55.43457;95377.86;;;;
2019/04/16 21:44:08;;;;;;;7.300001;5.9;;;;;;;9.66;55.43457;95377.86;;;;
2019/04/16 21:45:09;;;;;;;7.300001;5.9;;;;;;;9.66;55.43457;95377.86;;;;
2019/04/16 21:46:10;;;;;;;8.049999;6.05;;;;;;;9.62;55.76172;95384.75;;;;
2019/04/16 21:47:11;;;;;;;8.049999;6.05;;;;;;;9.62;55.76172;95384.75;;;;
2019/04/16 21:48:12;;;;;;;8.049999;6.05;;;;;;;9.62;55.76172;95384.75;;;;
2019/04/16 21:49:13;;;;;;;8.049999;6.05;;;;;;;9.62;55.76172;95384.75;;;;
2019/04/16 21:50:14;;;;;;;8.049999;6.05;;;;;;;9.62;55.76172;95384.75;;;;
2019/04/16 21:51:15;;;;;;;8.049999;6.05;;;;;;;9.62;55.76172;95384.75;;;;
2019/04/16 21:52:16;;;;;;;8.049999;6.05;;;;;;;9.62;55.76172;95384.75;;;;
2019/04/16 21:53:17;;;;;;;8.049999;6.05;;;;;;;9.62;55.76172;95384.75;;;;
2019/04/16 21:54:18;;;;;;;8.049999;6.05;;;;;;;9.62;55.76172;95384.75;;;;
2019/04/16 21:55:20;;;;;;;8.049999;6.05;;;;;;;9.62;55.76172;95384.75;;;;
2019/04/16 21:56:21;;;;;;;8.049999;6.05;;;;;;;9.62;55.76172;95384.75;;;;
2019/04/16 21:57:22;;;;;;;8.049999;6.05;;;;;;;9.62;55.76172;95384.75;;;;
2019/04/16 21:58:23;;;;;;;8.049999;6.05;;;;;;;9.62;55.76172;95384.75;;;;
2019/04/16 21:59:24;;;;;;;8.1;5.849999;;;;;;;8.98;55.41211;95397.83;;;;
2019/04/16 22:05:33;;;;;;;6.900001;5.95;;;;;;;8.94;56.13574;95396.62;;;;
2019/04/16 22:06:34;;;;;;;6.900001;5.95;;;;;;;8.94;56.13574;95396.62;;;;
2019/04/16 22:07:35;;;;;;;6.900001;5.95;;;;;;;8.94;56.13574;95396.62;;;;
2019/04/16 22:08:36;;;;;;;6.900001;5.95;;;;;;;8.94;56.13574;95396.62;;;;
2019/04/16 22:09:38;;;;;;;6.900001;5.95;;;;;;;8.94;56.13574;95396.62;;;;
2019/04/16 22:10:39;;;;;;;6.900001;5.95;;;;;;;8.94;56.13574;95396.62;;;;
2019/04/16 22:11:40;;;;;;;6.900001;5.95;;;;;;;8.94;56.13574;95396.62;;;;
2019/04/16 22:12:41;;;;;;;8.250001;5.400001;;;;;;;8.43;55.37402;95397.43;;;;
2019/04/16 22:13:42;;;;;;;8.250001;5.400001;;;;;;;8.43;55.37402;95397.43;;;;
2019/04/16 22:14:43;;;;;;;8.250001;5.400001;;;;;;;8.43;55.37402;95397.43;;;;
2019/04/16 22:15:44;;;;;;;7;5.55;;;;;;;8.37;56.52344;95403.68;;;;
2019/04/16 22:16:45;;;;;;;7;5.55;;;;;;;8.37;56.52344;95403.68;;;;
2019/04/16 22:17:46;;;;;;;7;5.55;;;;;;;8.37;56.52344;95403.68;;;;
2019/04/16 22:18:47;;;;;;;7;5.55;;;;;;;8.37;56.52344;95403.68;;;;
2019/04/16 22:19:48;;;;;;;7;5.55;;;;;;;8.37;56.52344;95403.68;;;;
2019/04/16 22:20:50;;;;;;;7;5.55;;;;;;;8.37;56.52344;95403.68;;;;
2019/04/16 22:21:51;;;;;;;7;5.55;;;;;;;8.37;56.52344;95403.68;;;;
2019/04/16 22:22:52;;;;;;;7;5.55;;;;;;;8.37;56.52344;95403.68;;;;
2019/04/16 22:23:53;;;;;;;7;5.55;;;;;;;8.37;56.52344;95403.68;;;;
2019/04/16 22:24:54;;;;;;;7;5.55;;;;;;;8.37;56.52344;95403.68;;;;
2019/04/16 22:25:55;;;;;;;6.100001;5.05;;;;;;;7.99;55.82031;95410.44;;;;
2019/04/16 22:26:56;;;;;;;6.100001;5.05;;;;;;;7.99;55.82031;95410.44;;;;
2019/04/16 22:27:57;;;;;;;6.100001;5.05;;;;;;;7.99;55.82031;95410.44;;;;
2019/04/16 22:28:58;;;;;;;5.350001;4.699999;;;;;;;7.96;57.01465;95410.47;;;;
2019/04/16 22:29:59;;;;;;;5.350001;4.699999;;;;;;;7.96;57.01465;95410.47;;;;
2019/04/16 22:31:00;;;;;;;5.350001;4.699999;;;;;;;7.96;57.01465;95410.47;;;;
2019/04/16 22:32:02;;;;;;;5.350001;4.699999;;;;;;;7.96;57.01465;95410.47;;;;
2019/04/16 22:33:03;;;;;;;5.350001;4.699999;;;;;;;7.96;57.01465;95410.47;;;;
2019/04/16 22:34:04;;;;;;;5.350001;4.699999;;;;;;;7.96;57.01465;95410.47;;;;
2019/04/16 22:35:05;;;;;;;5.350001;4.699999;;;;;;;7.96;57.01465;95410.47;;;;
2019/04/16 22:36:06;;;;;;;5.350001;4.699999;;;;;;;7.96;57.01465;95410.47;;;;
2019/04/16 22:37:07;;;;;;;5.350001;4.699999;;;;;;;7.96;57.01465;95410.47;;;;
2019/04/16 22:38:08;;;;;;;5.350001;4.699999;;;;;;;7.96;57.01465;95410.47;;;;
2019/04/16 22:39:20;;;;;;;6.45;4.099999;;;;;;;7.63;56.29785;95408.89;;;;
2019/04/16 22:40:35;;;;;;;6.45;4.099999;;;;;;;7.63;56.29785;95408.89;;;;
2019/04/16 22:41:41;;;;;;;6.45;4.099999;;;;;;;7.63;56.29785;95408.89;;;;
2019/04/16 22:47:25;;;;;;;6.45;4.099999;;;;;;;7.63;56.29785;95408.89;;;;
2019/04/16 22:48:26;;;;;;;6.45;4.099999;;;;;;;7.63;56.29785;95408.89;;;;
2019/04/16 22:49:27;;;;;;;6.4;4.8;;;;;;;7.35;56.11133;95418.65;;;;
2019/04/16 22:50:29;;;;;;;6.4;4.8;;;;;;;7.35;56.11133;95418.65;;;;
2019/04/16 22:51:30;;;;;;;6.4;4.8;;;;;;;7.35;56.11133;95418.65;;;;
2019/04/16 22:52:31;;;;;;;6.4;4.8;;;;;;;7.35;56.11133;95418.65;;;;
2019/04/16 22:53:32;;;;;;;6.4;4.8;;;;;;;7.35;56.11133;95418.65;;;;
2019/04/16 22:54:33;;;;;;;6.4;4.8;;;;;;;7.35;56.11133;95418.65;;;;
2019/04/16 22:55:34;;;;;;;6.4;4.8;;;;;;;7.35;56.11133;95418.65;;;;
2019/04/16 22:56:40;;;;;;;6.4;4.8;;;;;;;7.35;56.11133;95418.65;;;;
2019/04/16 22:57:42;;;;;;;6.4;4.8;;;;;;;7.35;56.11133;95418.65;;;;
2019/04/16 22:58:46;;;;;;;6.4;4.8;;;;;;;7.35;56.11133;95418.65;;;;
2019/04/16 22:59:47;;;;;;;5.100001;4.05;;;;;;;7.01;56.12109;95430.22;;;;
2019/04/16 23:00:49;;;;;;;5.100001;4.05;;;;;;;7.01;56.12109;95430.22;;;;
2019/04/16 23:01:50;;;;;;;5.100001;4.05;;;;;;;7.01;56.12109;95430.22;;;;
2019/04/16 23:02:51;;;;;;;5;4.5;;;;;;;7;57.58105;95437.02;;;;
2019/04/16 23:03:52;;;;;;;5;4.5;;;;;;;7;57.58105;95437.02;;;;
2019/04/16 23:04:54;;;;;;;5;4.5;;;;;;;7;57.58105;95437.02;;;;
2019/04/16 23:05:55;;;;;;;5;4.5;;;;;;;7;57.58105;95437.02;;;;
2019/04/16 23:06:56;;;;;;;5;4.5;;;;;;;7;57.58105;95437.02;;;;
2019/04/16 23:07:57;;;;;;;5;4.5;;;;;;;7;57.58105;95437.02;;;;
2019/04/16 23:08:58;;;;;;;5;4.5;;;;;;;7;57.58105;95437.02;;;;
2019/04/16 23:09:59;;;;;;;5;4.5;;;;;;;7;57.58105;95437.02;;;;
2019/04/16 23:11:00;;;;;;;5;4.5;;;;;;;7;57.58105;95437.02;;;;
2019/04/16 23:12:01;;;;;;;5;4.5;;;;;;;7;57.58105;95437.02;;;;
2019/04/16 23:13:02;;;;;;;5.8;4.349999;;;;;;;6.77;57.10449;95448.64;;;;
2019/04/16 23:14:03;;;;;;;5.8;4.349999;;;;;;;6.77;57.10449;95448.64;;;;
2019/04/16 23:15:05;;;;;;;5.8;4.349999;;;;;;;6.77;57.10449;95448.64;;;;
2019/04/16 23:16:07;;;;;;;5.8;4.349999;;;;;;;6.77;57.10449;95448.64;;;;
2019/04/16 23:17:08;;;;;;;5.8;4.349999;;;;;;;6.77;57.10449;95448.64;;;;
2019/04/16 23:18:09;;;;;;;5.8;4.349999;;;;;;;6.77;57.10449;95448.64;;;;
2019/04/16 23:19:10;;;;;;;5.8;4.349999;;;;;;;6.77;57.10449;95448.64;;;;
2019/04/16 23:20:11;;;;;;;5.8;4.349999;;;;;;;6.77;57.10449;95448.64;;;;
2019/04/16 23:21:12;;;;;;;5.8;4.349999;;;;;;;6.77;57.10449;95448.64;;;;
2019/04/16 23:22:13;;;;;;;5.8;4.349999;;;;;;;6.77;57.10449;95448.64;;;;
2019/04/16 23:23:14;;;;;;;5.8;4.349999;;;;;;;6.77;57.10449;95448.64;;;;
2019/04/16 23:24:15;;;;;;;6.1;4.75;;;;;;;6.59;56.94141;95448.95;;;;
2019/04/16 23:25:16;;;;;;;6.1;4.75;;;;;;;6.59;56.94141;95448.95;;;;
2019/04/16 23:26:18;;;;;;;6.1;4.75;;;;;;;6.59;56.94141;95448.95;;;;
2019/04/16 23:27:19;;;;;;;6.1;4.75;;;;;;;6.59;56.94141;95448.95;;;;
2019/04/16 23:28:20;;;;;;;6.1;4.75;;;;;;;6.59;56.94141;95448.95;;;;
2019/04/16 23:29:21;;;;;;;6.1;4.75;;;;;;;6.59;56.94141;95448.95;;;;
2019/04/16 23:30:22;;;;;;;6.1;4.75;;;;;;;6.59;56.94141;95448.95;;;;
2019/04/16 23:31:23;;;;;;;6.1;4.75;;;;;;;6.59;56.94141;95448.95;;;;
2019/04/16 23:32:24;;;;;;;6.1;4.75;;;;;;;6.59;56.94141;95448.95;;;;
2019/04/16 23:33:25;;;;;;;6.1;4.75;;;;;;;6.59;56.94141;95448.95;;;;
2019/04/16 23:34:26;;;;;;;6.199999;5.1;;;;;;;6.35;57.03613;95452.27;;;;
2019/04/16 23:35:27;;;;;;;6.199999;5.1;;;;;;;6.35;57.03613;95452.27;;;;
2019/04/16 23:36:28;;;;;;;6.199999;5.1;;;;;;;6.35;57.03613;95452.27;;;;
2019/04/16 23:37:29;;;;;;;6.199999;5.1;;;;;;;6.35;57.03613;95452.27;;;;
2019/04/16 23:38:30;;;;;;;6.199999;5.1;;;;;;;6.35;57.03613;95452.27;;;;
2019/04/16 23:39:32;;;;;;;6.199999;5.1;;;;;;;6.35;57.03613;95452.27;;;;
2019/04/16 23:40:33;;;;;;;6.199999;5.1;;;;;;;6.35;57.03613;95452.27;;;;
2019/04/16 23:41:34;;;;;;;6.199999;5.1;;;;;;;6.35;57.03613;95452.27;;;;
2019/04/16 23:42:39;;;;;;;6.199999;5.1;;;;;;;6.35;57.03613;95452.27;;;;
2019/04/16 23:43:48;;;;;;;6.199999;5.1;;;;;;;6.35;57.03613;95452.27;;;;
2019/04/16 23:45:05;;;;;;;6.95;5.25;;;;;;;6.19;57.1748;95460.72;;;;
2019/04/16 23:47:58;;;;;;;6.95;5.25;;;;;;;6.19;57.1748;95460.72;;;;
2019/04/16 23:49:13;;;;;;;6.95;5.25;;;;;;;6.19;57.1748;95460.72;;;;
2019/04/16 23:50:41;;;;;;;6.95;5.25;;;;;;;6.19;57.1748;95460.72;;;;
2019/04/16 23:51:52;;;;;;;6.95;5.25;;;;;;;6.19;57.1748;95460.72;;;;
2019/04/16 23:53:14;;;;;;;6.95;5.25;;;;;;;6.19;57.1748;95460.72;;;;
2019/04/16 23:54:19;;;;;;;6.95;5.25;;;;;;;6.19;57.1748;95460.72;;;;
2019/04/16 23:55:29;;;;;;;6.55;4.599999;;;;;;;5.97;57.34766;95465.94;;;;
2019/04/16 23:56:35;;;;;;;6.55;4.599999;;;;;;;5.97;57.34766;95465.94;;;;
2019/04/16 23:57:46;;;;;;;6.55;4.599999;;;;;;;5.97;57.34766;95465.94;;;;
2019/04/16 23:58:54;;;;;;;6.55;4.599999;;;;;;;5.97;57.34766;95465.94;;;;
